sensor_id;sensor_type;location;lat;lon;timestamp;P1;durP1;ratioP1;P2;durP2;ratioP2
32812;SDS011;19162;48.254;11.454;2022-07-05T00:00:57;2.63;;;1.70;;
32812;SDS011;19162;48.254;11.454;2022-07-05T00:03:57;2.50;;;1.73;;
32812;SDS011;19162;48.254;11.454;2022-07-05T00:06:58;3.50;;;1.73;;
32812;SDS011;19162;48.254;11.454;2022-07-05T00:10:16;2.60;;;1.90;;
32812;SDS011;19162;48.254;11.454;2022-07-05T00:13:17;2.17;;;1.67;;
32812;SDS011;19162;48.254;11.454;2022-07-05T00:16:17;5.10;;;2.33;;
32812;SDS011;19162;48.254;11.454;2022-07-05T00:19:17;2.53;;;1.80;;
32812;SDS011;19162;48.254;11.454;2022-07-05T00:22:17;4.72;;;1.50;;
32812;SDS011;19162;48.254;11.454;2022-07-05T00:25:18;3.67;;;1.77;;
32812;SDS011;19162;48.254;11.454;2022-07-05T00:28:18;1.90;;;1.60;;
32812;SDS011;19162;48.254;11.454;2022-07-05T00:31:18;2.13;;;1.90;;
32812;SDS011;19162;48.254;11.454;2022-07-05T00:34:18;3.67;;;1.50;;
32812;SDS011;19162;48.254;11.454;2022-07-05T00:37:18;4.13;;;1.67;;
32812;SDS011;19162;48.254;11.454;2022-07-05T00:40:19;2.25;;;1.90;;
32812;SDS011;19162;48.254;11.454;2022-07-05T00:43:19;2.60;;;1.90;;
32812;SDS011;19162;48.254;11.454;2022-07-05T00:46:19;6.07;;;2.20;;
32812;SDS011;19162;48.254;11.454;2022-07-05T00:49:19;1.67;;;1.50;;
32812;SDS011;19162;48.254;11.454;2022-07-05T00:52:19;1.60;;;1.37;;
32812;SDS011;19162;48.254;11.454;2022-07-05T00:55:20;1.70;;;1.60;;
32812;SDS011;19162;48.254;11.454;2022-07-05T00:58:20;3.00;;;2.07;;
32812;SDS011;19162;48.254;11.454;2022-07-05T01:01:20;2.70;;;2.40;;
32812;SDS011;19162;48.254;11.454;2022-07-05T01:04:20;4.67;;;1.73;;
32812;SDS011;19162;48.254;11.454;2022-07-05T01:07:21;1.87;;;1.50;;
32812;SDS011;19162;48.254;11.454;2022-07-05T01:10:21;3.25;;;1.30;;
32812;SDS011;19162;48.254;11.454;2022-07-05T01:13:22;2.23;;;1.20;;
32812;SDS011;19162;48.254;11.454;2022-07-05T01:16:22;2.05;;;1.80;;
32812;SDS011;19162;48.254;11.454;2022-07-05T01:19:23;2.00;;;1.80;;
32812;SDS011;19162;48.254;11.454;2022-07-05T01:22:25;1.65;;;1.45;;
32812;SDS011;19162;48.254;11.454;2022-07-05T01:25:26;1.92;;;1.55;;
32812;SDS011;19162;48.254;11.454;2022-07-05T01:28:27;1.60;;;1.27;;
32812;SDS011;19162;48.254;11.454;2022-07-05T01:31:27;3.37;;;1.90;;
32812;SDS011;19162;48.254;11.454;2022-07-05T01:34:27;1.93;;;1.50;;
32812;SDS011;19162;48.254;11.454;2022-07-05T01:37:28;1.50;;;1.40;;
32812;SDS011;19162;48.254;11.454;2022-07-05T01:40:29;2.05;;;1.48;;
32812;SDS011;19162;48.254;11.454;2022-07-05T01:43:29;1.90;;;1.30;;
32812;SDS011;19162;48.254;11.454;2022-07-05T01:46:30;4.50;;;1.63;;
32812;SDS011;19162;48.254;11.454;2022-07-05T01:49:34;3.28;;;1.80;;
32812;SDS011;19162;48.254;11.454;2022-07-05T01:52:36;4.05;;;1.95;;
32812;SDS011;19162;48.254;11.454;2022-07-05T01:55:36;4.70;;;1.92;;
32812;SDS011;19162;48.254;11.454;2022-07-05T01:58:36;4.00;;;1.73;;
32812;SDS011;19162;48.254;11.454;2022-07-05T02:01:38;1.57;;;1.47;;
32812;SDS011;19162;48.254;11.454;2022-07-05T02:04:38;2.97;;;1.55;;
32812;SDS011;19162;48.254;11.454;2022-07-05T02:07:48;1.97;;;1.30;;
32812;SDS011;19162;48.254;11.454;2022-07-05T02:10:49;2.92;;;1.63;;
32812;SDS011;19162;48.254;11.454;2022-07-05T02:13:49;2.03;;;1.70;;
32812;SDS011;19162;48.254;11.454;2022-07-05T02:16:49;1.75;;;1.63;;
32812;SDS011;19162;48.254;11.454;2022-07-05T02:19:49;4.38;;;1.70;;
32812;SDS011;19162;48.254;11.454;2022-07-05T02:22:49;1.80;;;1.35;;
32812;SDS011;19162;48.254;11.454;2022-07-05T02:25:50;3.10;;;1.73;;
32812;SDS011;19162;48.254;11.454;2022-07-05T02:28:51;1.80;;;1.60;;
32812;SDS011;19162;48.254;11.454;2022-07-05T02:31:52;3.00;;;1.65;;
32812;SDS011;19162;48.254;11.454;2022-07-05T02:34:52;1.90;;;1.57;;
32812;SDS011;19162;48.254;11.454;2022-07-05T02:37:52;2.23;;;1.60;;
32812;SDS011;19162;48.254;11.454;2022-07-05T02:40:52;3.07;;;1.67;;
32812;SDS011;19162;48.254;11.454;2022-07-05T02:43:52;3.95;;;1.77;;
32812;SDS011;19162;48.254;11.454;2022-07-05T02:46:53;3.63;;;1.77;;
32812;SDS011;19162;48.254;11.454;2022-07-05T02:49:53;2.90;;;1.90;;
32812;SDS011;19162;48.254;11.454;2022-07-05T02:52:53;2.30;;;1.30;;
32812;SDS011;19162;48.254;11.454;2022-07-05T02:55:53;4.85;;;1.77;;
32812;SDS011;19162;48.254;11.454;2022-07-05T02:58:54;3.30;;;1.58;;
32812;SDS011;19162;48.254;11.454;2022-07-05T03:01:54;3.23;;;1.33;;
32812;SDS011;19162;48.254;11.454;2022-07-05T03:04:54;8.18;;;2.03;;
32812;SDS011;19162;48.254;11.454;2022-07-05T03:07:54;3.58;;;2.00;;
32812;SDS011;19162;48.254;11.454;2022-07-05T03:10:54;2.45;;;1.70;;
32812;SDS011;19162;48.254;11.454;2022-07-05T03:13:55;2.08;;;1.75;;
32812;SDS011;19162;48.254;11.454;2022-07-05T03:16:55;2.93;;;2.03;;
32812;SDS011;19162;48.254;11.454;2022-07-05T03:19:55;4.07;;;1.83;;
32812;SDS011;19162;48.254;11.454;2022-07-05T03:22:55;4.10;;;2.10;;
32812;SDS011;19162;48.254;11.454;2022-07-05T03:25:55;4.72;;;1.73;;
32812;SDS011;19162;48.254;11.454;2022-07-05T03:28:56;2.70;;;2.10;;
32812;SDS011;19162;48.254;11.454;2022-07-05T03:31:56;5.43;;;2.00;;
32812;SDS011;19162;48.254;11.454;2022-07-05T03:34:56;6.00;;;2.70;;
32812;SDS011;19162;48.254;11.454;2022-07-05T03:37:56;5.37;;;2.17;;
32812;SDS011;19162;48.254;11.454;2022-07-05T03:40:57;10.98;;;2.25;;
32812;SDS011;19162;48.254;11.454;2022-07-05T03:43:57;3.90;;;2.20;;
32812;SDS011;19162;48.254;11.454;2022-07-05T03:46:58;2.67;;;1.90;;
32812;SDS011;19162;48.254;11.454;2022-07-05T03:49:58;2.97;;;1.83;;
32812;SDS011;19162;48.254;11.454;2022-07-05T03:52:58;4.73;;;1.90;;
32812;SDS011;19162;48.254;11.454;2022-07-05T03:55:58;2.90;;;2.00;;
32812;SDS011;19162;48.254;11.454;2022-07-05T03:58:58;3.40;;;2.20;;
32812;SDS011;19162;48.254;11.454;2022-07-05T04:01:59;1.40;;;1.30;;
32812;SDS011;19162;48.254;11.454;2022-07-05T04:04:59;5.57;;;1.90;;
32812;SDS011;19162;48.254;11.454;2022-07-05T04:07:59;2.35;;;1.77;;
32812;SDS011;19162;48.254;11.454;2022-07-05T04:10:59;2.33;;;2.00;;
32812;SDS011;19162;48.254;11.454;2022-07-05T04:14:00;3.67;;;1.92;;
32812;SDS011;19162;48.254;11.454;2022-07-05T04:17:00;3.13;;;2.00;;
32812;SDS011;19162;48.254;11.454;2022-07-05T04:20:00;2.00;;;1.80;;
32812;SDS011;19162;48.254;11.454;2022-07-05T04:23:00;2.30;;;2.07;;
32812;SDS011;19162;48.254;11.454;2022-07-05T04:26:01;3.17;;;2.05;;
32812;SDS011;19162;48.254;11.454;2022-07-05T04:29:01;3.95;;;2.15;;
32812;SDS011;19162;48.254;11.454;2022-07-05T04:32:02;2.33;;;2.10;;
32812;SDS011;19162;48.254;11.454;2022-07-05T04:35:02;2.53;;;1.88;;
32812;SDS011;19162;48.254;11.454;2022-07-05T04:38:02;4.50;;;1.98;;
32812;SDS011;19162;48.254;11.454;2022-07-05T04:41:03;3.03;;;2.22;;
32812;SDS011;19162;48.254;11.454;2022-07-05T04:44:03;4.80;;;2.13;;
32812;SDS011;19162;48.254;11.454;2022-07-05T04:47:04;1.83;;;1.73;;
32812;SDS011;19162;48.254;11.454;2022-07-05T04:50:05;3.67;;;2.20;;
32812;SDS011;19162;48.254;11.454;2022-07-05T04:53:05;2.45;;;2.20;;
32812;SDS011;19162;48.254;11.454;2022-07-05T04:56:05;2.97;;;2.17;;
32812;SDS011;19162;48.254;11.454;2022-07-05T04:59:06;4.22;;;2.15;;
32812;SDS011;19162;48.254;11.454;2022-07-05T05:02:06;4.72;;;2.28;;
32812;SDS011;19162;48.254;11.454;2022-07-05T05:05:07;3.83;;;2.27;;
32812;SDS011;19162;48.254;11.454;2022-07-05T05:08:08;5.22;;;2.30;;
32812;SDS011;19162;48.254;11.454;2022-07-05T05:11:08;7.23;;;2.33;;
32812;SDS011;19162;48.254;11.454;2022-07-05T05:14:08;4.75;;;2.05;;
32812;SDS011;19162;48.254;11.454;2022-07-05T05:17:08;8.57;;;3.03;;
32812;SDS011;19162;48.254;11.454;2022-07-05T05:20:13;5.00;;;2.50;;
32812;SDS011;19162;48.254;11.454;2022-07-05T05:23:13;5.28;;;2.60;;
32812;SDS011;19162;48.254;11.454;2022-07-05T05:26:13;7.03;;;2.83;;
32812;SDS011;19162;48.254;11.454;2022-07-05T05:29:14;7.20;;;2.80;;
32812;SDS011;19162;48.254;11.454;2022-07-05T05:32:14;3.83;;;2.78;;
32812;SDS011;19162;48.254;11.454;2022-07-05T05:35:14;4.25;;;2.90;;
32812;SDS011;19162;48.254;11.454;2022-07-05T05:38:16;5.95;;;3.40;;
32812;SDS011;19162;48.254;11.454;2022-07-05T05:41:16;3.85;;;3.10;;
32812;SDS011;19162;48.254;11.454;2022-07-05T05:44:17;4.33;;;3.13;;
32812;SDS011;19162;48.254;11.454;2022-07-05T05:47:17;6.57;;;3.87;;
32812;SDS011;19162;48.254;11.454;2022-07-05T05:50:18;5.90;;;4.18;;
32812;SDS011;19162;48.254;11.454;2022-07-05T05:53:18;5.45;;;3.65;;
32812;SDS011;19162;48.254;11.454;2022-07-05T05:56:18;5.20;;;4.07;;
32812;SDS011;19162;48.254;11.454;2022-07-05T05:59:18;4.20;;;3.90;;
32812;SDS011;19162;48.254;11.454;2022-07-05T06:02:18;4.80;;;4.30;;
32812;SDS011;19162;48.254;11.454;2022-07-05T06:05:19;8.93;;;4.10;;
32812;SDS011;19162;48.254;11.454;2022-07-05T06:08:19;4.10;;;3.70;;
32812;SDS011;19162;48.254;11.454;2022-07-05T06:11:19;6.57;;;3.83;;
32812;SDS011;19162;48.254;11.454;2022-07-05T06:14:19;7.28;;;3.63;;
32812;SDS011;19162;48.254;11.454;2022-07-05T06:17:19;4.22;;;3.92;;
32812;SDS011;19162;48.254;11.454;2022-07-05T06:20:20;3.90;;;3.50;;
32812;SDS011;19162;48.254;11.454;2022-07-05T06:23:21;5.03;;;3.97;;
32812;SDS011;19162;48.254;11.454;2022-07-05T06:26:21;5.30;;;3.75;;
32812;SDS011;19162;48.254;11.454;2022-07-05T06:29:21;5.85;;;3.55;;
32812;SDS011;19162;48.254;11.454;2022-07-05T06:32:21;7.45;;;3.95;;
32812;SDS011;19162;48.254;11.454;2022-07-05T06:35:22;5.22;;;3.90;;
32812;SDS011;19162;48.254;11.454;2022-07-05T06:38:22;6.53;;;3.33;;
32812;SDS011;19162;48.254;11.454;2022-07-05T06:41:22;8.38;;;3.55;;
32812;SDS011;19162;48.254;11.454;2022-07-05T06:44:22;4.10;;;3.55;;
32812;SDS011;19162;48.254;11.454;2022-07-05T06:47:22;5.60;;;3.58;;
32812;SDS011;19162;48.254;11.454;2022-07-05T06:50:23;5.47;;;3.95;;
32812;SDS011;19162;48.254;11.454;2022-07-05T06:53:23;4.05;;;3.15;;
32812;SDS011;19162;48.254;11.454;2022-07-05T06:56:23;4.93;;;2.85;;
32812;SDS011;19162;48.254;11.454;2022-07-05T06:59:23;6.65;;;3.03;;
32812;SDS011;19162;48.254;11.454;2022-07-05T07:02:24;5.00;;;2.35;;
32812;SDS011;19162;48.254;11.454;2022-07-05T07:05:24;4.03;;;2.50;;
32812;SDS011;19162;48.254;11.454;2022-07-05T07:08:25;2.55;;;2.20;;
32812;SDS011;19162;48.254;11.454;2022-07-05T07:11:44;4.00;;;2.85;;
32812;SDS011;19162;48.254;11.454;2022-07-05T07:14:44;6.68;;;2.47;;
32812;SDS011;19162;48.254;11.454;2022-07-05T07:17:44;5.72;;;2.60;;
32812;SDS011;19162;48.254;11.454;2022-07-05T07:20:44;4.30;;;2.70;;
32812;SDS011;19162;48.254;11.454;2022-07-05T07:23:45;10.30;;;3.13;;
32812;SDS011;19162;48.254;11.454;2022-07-05T07:26:45;5.75;;;2.38;;
32812;SDS011;19162;48.254;11.454;2022-07-05T07:30:04;3.33;;;2.25;;
32812;SDS011;19162;48.254;11.454;2022-07-05T07:33:04;2.55;;;1.95;;
32812;SDS011;19162;48.254;11.454;2022-07-05T07:36:04;2.50;;;2.10;;
32812;SDS011;19162;48.254;11.454;2022-07-05T07:39:05;3.65;;;1.88;;
32812;SDS011;19162;48.254;11.454;2022-07-05T07:42:05;3.42;;;1.80;;
32812;SDS011;19162;48.254;11.454;2022-07-05T07:45:06;7.43;;;1.90;;
32812;SDS011;19162;48.254;11.454;2022-07-05T07:48:06;10.18;;;2.10;;
32812;SDS011;19162;48.254;11.454;2022-07-05T07:51:06;3.17;;;2.22;;
32812;SDS011;19162;48.254;11.454;2022-07-05T07:54:07;5.20;;;2.10;;
32812;SDS011;19162;48.254;11.454;2022-07-05T07:57:07;3.37;;;1.70;;
32812;SDS011;19162;48.254;11.454;2022-07-05T08:00:07;2.23;;;1.73;;
32812;SDS011;19162;48.254;11.454;2022-07-05T08:03:08;4.20;;;1.98;;
32812;SDS011;19162;48.254;11.454;2022-07-05T08:06:08;2.13;;;1.73;;
32812;SDS011;19162;48.254;11.454;2022-07-05T08:09:10;2.13;;;1.92;;
32812;SDS011;19162;48.254;11.454;2022-07-05T08:12:11;5.43;;;1.77;;
32812;SDS011;19162;48.254;11.454;2022-07-05T08:15:11;2.28;;;1.50;;
32812;SDS011;19162;48.254;11.454;2022-07-05T08:18:14;4.82;;;1.77;;
32812;SDS011;19162;48.254;11.454;2022-07-05T08:21:33;2.63;;;1.77;;
32812;SDS011;19162;48.254;11.454;2022-07-05T08:24:40;6.18;;;1.80;;
32812;SDS011;19162;48.254;11.454;2022-07-05T08:27:40;3.83;;;1.50;;
32812;SDS011;19162;48.254;11.454;2022-07-05T08:30:40;2.23;;;1.53;;
32812;SDS011;19162;48.254;11.454;2022-07-05T08:33:40;2.72;;;1.55;;
32812;SDS011;19162;48.254;11.454;2022-07-05T08:36:41;2.27;;;1.60;;
32812;SDS011;19162;48.254;11.454;2022-07-05T08:39:41;1.88;;;1.42;;
32812;SDS011;19162;48.254;11.454;2022-07-05T08:42:42;3.50;;;1.55;;
32812;SDS011;19162;48.254;11.454;2022-07-05T08:49:07;2.22;;;1.73;;
32812;SDS011;19162;48.254;11.454;2022-07-05T09:10:43;2.17;;;1.40;;
32812;SDS011;19162;48.254;11.454;2022-07-05T09:13:50;3.47;;;1.45;;
32812;SDS011;19162;48.254;11.454;2022-07-05T09:16:53;3.75;;;2.17;;
32812;SDS011;19162;48.254;11.454;2022-07-05T09:27:00;1.65;;;1.08;;
32812;SDS011;19162;48.254;11.454;2022-07-05T09:33:29;1.83;;;1.40;;
32812;SDS011;19162;48.254;11.454;2022-07-05T09:36:56;2.00;;;0.80;;
32812;SDS011;19162;48.254;11.454;2022-07-05T09:39:55;2.90;;;1.42;;
32812;SDS011;19162;48.254;11.454;2022-07-05T09:43:09;2.27;;;1.40;;
32812;SDS011;19162;48.254;11.454;2022-07-05T09:46:12;3.05;;;1.20;;
32812;SDS011;19162;48.254;11.454;2022-07-05T09:49:24;2.03;;;1.20;;
32812;SDS011;19162;48.254;11.454;2022-07-05T09:52:36;3.88;;;1.30;;
32812;SDS011;19162;48.254;11.454;2022-07-05T09:59:14;2.13;;;1.08;;
32812;SDS011;19162;48.254;11.454;2022-07-05T10:02:17;1.83;;;1.35;;
32812;SDS011;19162;48.254;11.454;2022-07-05T10:05:25;6.88;;;1.70;;
32812;SDS011;19162;48.254;11.454;2022-07-05T10:08:25;2.50;;;1.40;;
32812;SDS011;19162;48.254;11.454;2022-07-05T10:11:26;4.40;;;1.50;;
32812;SDS011;19162;48.254;11.454;2022-07-05T10:14:27;7.18;;;1.33;;
32812;SDS011;19162;48.254;11.454;2022-07-05T10:17:27;1.10;;;1.00;;
32812;SDS011;19162;48.254;11.454;2022-07-05T10:23:31;3.92;;;1.20;;
32812;SDS011;19162;48.254;11.454;2022-07-05T10:26:32;2.03;;;1.27;;
32812;SDS011;19162;48.254;11.454;2022-07-05T10:29:34;1.98;;;1.17;;
32812;SDS011;19162;48.254;11.454;2022-07-05T10:32:34;2.67;;;1.27;;
32812;SDS011;19162;48.254;11.454;2022-07-05T10:35:36;1.45;;;1.10;;
32812;SDS011;19162;48.254;11.454;2022-07-05T10:38:37;2.13;;;1.10;;
32812;SDS011;19162;48.254;11.454;2022-07-05T10:41:38;0.90;;;0.77;;
32812;SDS011;19162;48.254;11.454;2022-07-05T10:44:40;10.13;;;1.37;;
32812;SDS011;19162;48.254;11.454;2022-07-05T10:47:40;1.23;;;0.80;;
32812;SDS011;19162;48.254;11.454;2022-07-05T10:50:48;1.45;;;1.02;;
32812;SDS011;19162;48.254;11.454;2022-07-05T10:57:22;1.93;;;1.10;;
32812;SDS011;19162;48.254;11.454;2022-07-05T11:00:15;1.52;;;1.00;;
32812;SDS011;19162;48.254;11.454;2022-07-05T11:09:38;1.35;;;0.90;;
32812;SDS011;19162;48.254;11.454;2022-07-05T11:12:58;1.98;;;1.05;;
32812;SDS011;19162;48.254;11.454;2022-07-05T11:19:17;3.78;;;1.92;;
32812;SDS011;19162;48.254;11.454;2022-07-05T11:25:20;1.85;;;0.80;;
32812;SDS011;19162;48.254;11.454;2022-07-05T11:28:21;3.42;;;0.95;;
32812;SDS011;19162;48.254;11.454;2022-07-05T11:31:39;3.28;;;0.90;;
32812;SDS011;19162;48.254;11.454;2022-07-05T11:34:40;7.65;;;1.00;;
32812;SDS011;19162;48.254;11.454;2022-07-05T11:38:03;0.95;;;0.90;;
32812;SDS011;19162;48.254;11.454;2022-07-05T11:41:11;3.15;;;0.90;;
32812;SDS011;19162;48.254;11.454;2022-07-05T11:44:13;2.42;;;1.00;;
32812;SDS011;19162;48.254;11.454;2022-07-05T11:47:14;1.02;;;0.85;;
32812;SDS011;19162;48.254;11.454;2022-07-05T11:50:15;1.30;;;0.93;;
32812;SDS011;19162;48.254;11.454;2022-07-05T11:53:24;0.87;;;0.87;;
32812;SDS011;19162;48.254;11.454;2022-07-05T11:56:25;3.80;;;1.05;;
32812;SDS011;19162;48.254;11.454;2022-07-05T11:59:26;2.45;;;1.25;;
32812;SDS011;19162;48.254;11.454;2022-07-05T12:02:26;2.28;;;0.90;;
32812;SDS011;19162;48.254;11.454;2022-07-05T12:05:30;4.13;;;1.10;;
32812;SDS011;19162;48.254;11.454;2022-07-05T12:08:31;1.48;;;1.10;;
32812;SDS011;19162;48.254;11.454;2022-07-05T12:11:31;1.10;;;0.70;;
32812;SDS011;19162;48.254;11.454;2022-07-05T12:14:50;2.70;;;0.88;;
32812;SDS011;19162;48.254;11.454;2022-07-05T12:17:50;1.10;;;0.85;;
32812;SDS011;19162;48.254;11.454;2022-07-05T12:20:55;2.72;;;0.95;;
32812;SDS011;19162;48.254;11.454;2022-07-05T12:23:55;0.90;;;0.90;;
32812;SDS011;19162;48.254;11.454;2022-07-05T12:26:55;1.17;;;1.00;;
32812;SDS011;19162;48.254;11.454;2022-07-05T12:29:56;2.03;;;1.10;;
32812;SDS011;19162;48.254;11.454;2022-07-05T12:33:04;1.67;;;1.13;;
32812;SDS011;19162;48.254;11.454;2022-07-05T12:36:05;1.30;;;1.20;;
32812;SDS011;19162;48.254;11.454;2022-07-05T12:39:10;1.15;;;1.00;;
32812;SDS011;19162;48.254;11.454;2022-07-05T12:42:10;1.00;;;0.90;;
32812;SDS011;19162;48.254;11.454;2022-07-05T12:45:14;0.97;;;0.97;;
32812;SDS011;19162;48.254;11.454;2022-07-05T12:48:15;1.15;;;1.05;;
32812;SDS011;19162;48.254;11.454;2022-07-05T12:51:15;1.33;;;1.00;;
32812;SDS011;19162;48.254;11.454;2022-07-05T12:54:30;1.15;;;0.90;;
32812;SDS011;19162;48.254;11.454;2022-07-05T12:57:49;2.13;;;1.05;;
32812;SDS011;19162;48.254;11.454;2022-07-05T13:01:02;1.30;;;0.98;;
32812;SDS011;19162;48.254;11.454;2022-07-05T13:04:17;1.35;;;1.00;;
32812;SDS011;19162;48.254;11.454;2022-07-05T13:07:24;3.97;;;1.00;;
32812;SDS011;19162;48.254;11.454;2022-07-05T13:10:25;1.30;;;0.90;;
32812;SDS011;19162;48.254;11.454;2022-07-05T13:13:28;1.23;;;1.00;;
32812;SDS011;19162;48.254;11.454;2022-07-05T13:16:28;1.42;;;1.00;;
32812;SDS011;19162;48.254;11.454;2022-07-05T13:19:28;1.53;;;0.97;;
32812;SDS011;19162;48.254;11.454;2022-07-05T13:22:28;1.03;;;0.83;;
32812;SDS011;19162;48.254;11.454;2022-07-05T13:25:29;2.77;;;1.00;;
32812;SDS011;19162;48.254;11.454;2022-07-05T13:28:29;1.93;;;0.93;;
32812;SDS011;19162;48.254;11.454;2022-07-05T13:31:29;1.55;;;1.00;;
32812;SDS011;19162;48.254;11.454;2022-07-05T13:34:30;2.58;;;0.98;;
32812;SDS011;19162;48.254;11.454;2022-07-05T13:37:30;2.33;;;0.88;;
32812;SDS011;19162;48.254;11.454;2022-07-05T13:40:31;1.20;;;0.88;;
32812;SDS011;19162;48.254;11.454;2022-07-05T13:43:31;0.73;;;0.73;;
32812;SDS011;19162;48.254;11.454;2022-07-05T13:46:31;0.98;;;0.90;;
32812;SDS011;19162;48.254;11.454;2022-07-05T13:49:31;1.30;;;0.90;;
32812;SDS011;19162;48.254;11.454;2022-07-05T13:52:31;1.07;;;0.90;;
32812;SDS011;19162;48.254;11.454;2022-07-05T13:55:32;2.45;;;1.23;;
32812;SDS011;19162;48.254;11.454;2022-07-05T13:58:33;2.20;;;0.90;;
32812;SDS011;19162;48.254;11.454;2022-07-05T14:01:34;3.75;;;1.00;;
32812;SDS011;19162;48.254;11.454;2022-07-05T14:04:34;0.98;;;0.90;;
32812;SDS011;19162;48.254;11.454;2022-07-05T14:07:34;2.70;;;1.10;;
32812;SDS011;19162;48.254;11.454;2022-07-05T14:10:34;1.55;;;1.15;;
32812;SDS011;19162;48.254;11.454;2022-07-05T14:13:35;1.93;;;1.13;;
32812;SDS011;19162;48.254;11.454;2022-07-05T14:16:35;1.93;;;0.90;;
32812;SDS011;19162;48.254;11.454;2022-07-05T14:19:35;2.10;;;1.27;;
32812;SDS011;19162;48.254;11.454;2022-07-05T14:22:35;2.28;;;1.13;;
32812;SDS011;19162;48.254;11.454;2022-07-05T14:25:36;1.63;;;0.90;;
32812;SDS011;19162;48.254;11.454;2022-07-05T14:28:36;1.88;;;1.13;;
32812;SDS011;19162;48.254;11.454;2022-07-05T14:31:36;1.27;;;1.10;;
32812;SDS011;19162;48.254;11.454;2022-07-05T14:34:36;1.77;;;1.05;;
32812;SDS011;19162;48.254;11.454;2022-07-05T14:37:36;1.67;;;0.90;;
32812;SDS011;19162;48.254;11.454;2022-07-05T14:40:36;2.72;;;1.10;;
32812;SDS011;19162;48.254;11.454;2022-07-05T14:43:37;1.80;;;1.00;;
32812;SDS011;19162;48.254;11.454;2022-07-05T14:46:37;2.03;;;1.10;;
32812;SDS011;19162;48.254;11.454;2022-07-05T14:49:37;3.33;;;1.42;;
32812;SDS011;19162;48.254;11.454;2022-07-05T14:52:37;1.33;;;0.90;;
32812;SDS011;19162;48.254;11.454;2022-07-05T14:55:37;1.70;;;1.00;;
32812;SDS011;19162;48.254;11.454;2022-07-05T14:58:38;2.15;;;1.00;;
32812;SDS011;19162;48.254;11.454;2022-07-05T15:01:38;1.63;;;1.20;;
32812;SDS011;19162;48.254;11.454;2022-07-05T15:04:38;1.55;;;1.10;;
32812;SDS011;19162;48.254;11.454;2022-07-05T15:07:39;5.53;;;1.75;;
32812;SDS011;19162;48.254;11.454;2022-07-05T15:10:40;2.30;;;1.17;;
32812;SDS011;19162;48.254;11.454;2022-07-05T15:13:40;2.70;;;1.40;;
32812;SDS011;19162;48.254;11.454;2022-07-05T15:16:40;2.33;;;1.20;;
32812;SDS011;19162;48.254;11.454;2022-07-05T15:19:40;4.97;;;1.10;;
32812;SDS011;19162;48.254;11.454;2022-07-05T15:22:41;2.05;;;1.38;;
32812;SDS011;19162;48.254;11.454;2022-07-05T15:25:41;2.00;;;1.10;;
32812;SDS011;19162;48.254;11.454;2022-07-05T15:28:41;2.20;;;1.13;;
32812;SDS011;19162;48.254;11.454;2022-07-05T15:31:41;3.60;;;1.10;;
32812;SDS011;19162;48.254;11.454;2022-07-05T15:34:42;6.77;;;1.60;;
32812;SDS011;19162;48.254;11.454;2022-07-05T15:37:42;2.93;;;1.23;;
32812;SDS011;19162;48.254;11.454;2022-07-05T15:40:42;1.33;;;0.90;;
32812;SDS011;19162;48.254;11.454;2022-07-05T15:43:42;0.98;;;0.98;;
32812;SDS011;19162;48.254;11.454;2022-07-05T15:46:43;2.17;;;1.27;;
32812;SDS011;19162;48.254;11.454;2022-07-05T15:50:02;5.22;;;1.15;;
32812;SDS011;19162;48.254;11.454;2022-07-05T15:53:02;2.13;;;0.90;;
32812;SDS011;19162;48.254;11.454;2022-07-05T15:56:02;1.40;;;1.10;;
32812;SDS011;19162;48.254;11.454;2022-07-05T15:59:03;2.67;;;1.45;;
32812;SDS011;19162;48.254;11.454;2022-07-05T16:02:03;3.28;;;1.20;;
32812;SDS011;19162;48.254;11.454;2022-07-05T16:05:04;3.88;;;1.30;;
32812;SDS011;19162;48.254;11.454;2022-07-05T16:08:04;1.20;;;1.02;;
32812;SDS011;19162;48.254;11.454;2022-07-05T16:11:06;1.77;;;0.90;;
32812;SDS011;19162;48.254;11.454;2022-07-05T16:14:06;1.60;;;1.13;;
32812;SDS011;19162;48.254;11.454;2022-07-05T16:17:06;1.00;;;0.90;;
32812;SDS011;19162;48.254;11.454;2022-07-05T16:20:06;2.50;;;1.00;;
32812;SDS011;19162;48.254;11.454;2022-07-05T16:23:07;3.60;;;1.10;;
32812;SDS011;19162;48.254;11.454;2022-07-05T16:26:08;3.00;;;1.40;;
32812;SDS011;19162;48.254;11.454;2022-07-05T16:29:08;1.83;;;1.25;;
32812;SDS011;19162;48.254;11.454;2022-07-05T16:32:09;4.65;;;1.48;;
32812;SDS011;19162;48.254;11.454;2022-07-05T16:35:10;3.37;;;1.27;;
32812;SDS011;19162;48.254;11.454;2022-07-05T16:38:10;2.93;;;0.90;;
32812;SDS011;19162;48.254;11.454;2022-07-05T16:41:10;1.50;;;1.30;;
32812;SDS011;19162;48.254;11.454;2022-07-05T16:44:14;5.78;;;1.58;;
32812;SDS011;19162;48.254;11.454;2022-07-05T16:47:14;2.70;;;1.45;;
32812;SDS011;19162;48.254;11.454;2022-07-05T16:50:14;3.13;;;1.30;;
32812;SDS011;19162;48.254;11.454;2022-07-05T16:53:15;1.63;;;1.20;;
32812;SDS011;19162;48.254;11.454;2022-07-05T16:56:15;1.93;;;1.00;;
32812;SDS011;19162;48.254;11.454;2022-07-05T16:59:16;2.10;;;1.25;;
32812;SDS011;19162;48.254;11.454;2022-07-05T17:02:16;1.65;;;1.13;;
32812;SDS011;19162;48.254;11.454;2022-07-05T17:05:16;2.85;;;1.77;;
32812;SDS011;19162;48.254;11.454;2022-07-05T17:08:16;2.80;;;2.00;;
32812;SDS011;19162;48.254;11.454;2022-07-05T17:11:17;1.60;;;1.20;;
32812;SDS011;19162;48.254;11.454;2022-07-05T17:14:17;4.75;;;1.75;;
32812;SDS011;19162;48.254;11.454;2022-07-05T17:17:17;8.43;;;2.13;;
32812;SDS011;19162;48.254;11.454;2022-07-05T17:20:18;2.10;;;1.25;;
32812;SDS011;19162;48.254;11.454;2022-07-05T17:23:20;3.05;;;1.25;;
32812;SDS011;19162;48.254;11.454;2022-07-05T17:26:22;2.58;;;2.10;;
32812;SDS011;19162;48.254;11.454;2022-07-05T17:29:22;2.05;;;1.52;;
32812;SDS011;19162;48.254;11.454;2022-07-05T17:32:22;2.45;;;2.00;;
32812;SDS011;19162;48.254;11.454;2022-07-05T17:35:22;2.90;;;1.60;;
32812;SDS011;19162;48.254;11.454;2022-07-05T17:38:23;5.50;;;2.17;;
32812;SDS011;19162;48.254;11.454;2022-07-05T17:41:23;4.80;;;1.50;;
32812;SDS011;19162;48.254;11.454;2022-07-05T17:44:23;1.70;;;1.57;;
32812;SDS011;19162;48.254;11.454;2022-07-05T17:47:23;2.83;;;1.48;;
32812;SDS011;19162;48.254;11.454;2022-07-05T17:50:23;7.18;;;1.75;;
32812;SDS011;19162;48.254;11.454;2022-07-05T17:53:24;3.10;;;2.03;;
32812;SDS011;19162;48.254;11.454;2022-07-05T17:56:24;2.28;;;1.98;;
32812;SDS011;19162;48.254;11.454;2022-07-05T17:59:24;3.85;;;2.10;;
32812;SDS011;19162;48.254;11.454;2022-07-05T18:02:24;1.70;;;1.60;;
32812;SDS011;19162;48.254;11.454;2022-07-05T18:05:25;4.68;;;2.08;;
32812;SDS011;19162;48.254;11.454;2022-07-05T18:08:25;5.00;;;2.90;;
32812;SDS011;19162;48.254;11.454;2022-07-05T18:11:25;3.13;;;1.52;;
32812;SDS011;19162;48.254;11.454;2022-07-05T18:14:26;2.67;;;1.63;;
32812;SDS011;19162;48.254;11.454;2022-07-05T18:17:26;1.58;;;1.20;;
32812;SDS011;19162;48.254;11.454;2022-07-05T18:20:27;2.35;;;1.42;;
32812;SDS011;19162;48.254;11.454;2022-07-05T18:23:27;2.58;;;2.20;;
32812;SDS011;19162;48.254;11.454;2022-07-05T18:26:27;4.83;;;3.60;;
32812;SDS011;19162;48.254;11.454;2022-07-05T18:29:27;2.10;;;1.30;;
32812;SDS011;19162;48.254;11.454;2022-07-05T18:32:28;2.08;;;1.88;;
32812;SDS011;19162;48.254;11.454;2022-07-05T18:35:28;2.60;;;1.57;;
32812;SDS011;19162;48.254;11.454;2022-07-05T18:38:28;2.25;;;2.03;;
32812;SDS011;19162;48.254;11.454;2022-07-05T18:41:29;2.78;;;1.50;;
32812;SDS011;19162;48.254;11.454;2022-07-05T18:44:29;3.00;;;1.80;;
32812;SDS011;19162;48.254;11.454;2022-07-05T18:47:29;2.33;;;1.43;;
32812;SDS011;19162;48.254;11.454;2022-07-05T18:50:30;1.92;;;1.70;;